KHYS

Hays Regional Airport

Hays, Kansas, USA
KHYS 161720Z 1618/1718 09006KT P6SM SCT040 SCT250 FM170100 10005KT P6SM VCTS SCT090 BKN250CB FM171200 11005KT P6SM BKN110
Issued Valid From Valid To
Jul-16 @ 17:20 UTC
(3 hours ago)
Jul-16 @ 18:00 UTC
(2 hours ago)
Jul-17 @ 18:00 UTC
(in 22 hours)
Jul-16 @ 18:00 to Jul-17 @ 01:00
KHYS 161720Z 1618/1718 09006KT P6SM SCT040 SCT250
Wind Visibility Clouds
90° at 6 knots Greater than 6 miles
  • Scattered at 4,000' AGL
  • Scattered at 25,000' AGL
From Jul-17 @ 01:00 to Jul-17 @ 12:00
FM170100 10005KT P6SM VCTS SCT090 BKN250CB
Wind Visibility Clouds Conditions
100° at 5 knots Greater than 6 miles
  • Scattered at 9,000' AGL
  • Broken at 25,000' AGL
  • Area Thunderstorm
From Jul-17 @ 12:00 to Jul-17 @ 18:00
FM171200 11005KT P6SM BKN110
Wind Visibility Clouds
110° at 5 knots Greater than 6 miles
  • Broken at 11,000' AGL
KHYS 161720Z 1618/1718 09006KT P6SM SCT040 SCT250 FM170100 10005KT P6SM VCTS SCT090 BKN250CB FM171200 11005KT P6SM BKN110
Issued Jul-16 @ 17:20 UTC
(3 hours ago)
Valid From Jul-16 @ 18:00 UTC
(2 hours ago)
Valid To Jul-17 @ 18:00 UTC
(in 22 hours)
Jul-16 @ 18:00 - Jul-17 @ 01:00
Wind Visibility
90° at 6 knots Greater than 6 miles
Clouds
  • Scattered at 4,000' AGL
  • Scattered at 25,000' AGL
From Jul-17 @ 01:00 - Jul-17 @ 12:00
Wind Visibility
100° at 5 knots Greater than 6 miles
Clouds
  • Scattered at 9,000' AGL
  • Broken at 25,000' AGL
Conditions
  • Area Thunderstorm
From Jul-17 @ 12:00 - Jul-17 @ 18:00
Wind Visibility
110° at 5 knots Greater than 6 miles
Clouds
  • Broken at 11,000' AGL